Weather at McCarran International Airport

Public forecast

Using degrees Fahrenheit for public forecast. Weather courtesy of forecast.io.

Current aviation weather report (METAR) for McCarran International Airport

Retrieved 2020/10/31 00:56 UTC (21 minutes ago):

KLAS 310056Z 00000KT 10SM FEW250 24/M04 A3000 RMK AO2 SLP146 T02391044

Aviation forecast (TAF) for McCarran International Airport

Retrieved 2020-10-31 00:22 UTC (55 minutes ago):

TAF KLAS 302320Z 3100/0106 09005KT P6SM SKC FM310200 21006KT P6SM SKC FM311500 VRB05KT P6SM SKC FM312100 06006KT P6SM SCT250 FM010200 21006KT P6SM SCT250